Time;durP1;ratioP1;P1;durP2;ratioP2;P2;SDS_P1;SDS_P2;PMS_P1;PMS_P2;Temp;Humidity;BMP_temperature;BMP_pressure;BME280_temperature;BME280_humidity;BME280_pressure;Samples;Min_cycle;Max_cycle;Signal;HPM_P1;HPM_P2
2023/06/15 00:01:05;;;;;;;;;23.75;23.75;;;;;28.17;29.23;100893.09;5049682;28;29930;-62
2023/06/15 00:03:30;;;;;;;;;29.75;29.75;;;;;28.15;29.25;100895.44;5031306;28;29761;-62
2023/06/15 00:05:56;;;;;;;;;25.00;25.00;;;;;28.16;29.38;100893.47;5048647;28;29305;-58
2023/06/15 00:08:22;;;;;;;;;26.80;25.00;;;;;28.13;29.67;100889.31;5049263;28;29400;-61
2023/06/15 00:10:47;;;;;;;;;22.00;19.25;;;;;28.15;29.76;100895.44;5032167;28;29479;-61
2023/06/15 00:13:13;;;;;;;;;22.25;21.25;;;;;28.10;29.77;100893.59;5048334;28;30658;-61
2023/06/15 00:15:39;;;;;;;;;23.20;21.20;;;;;27.98;29.82;100896.22;5026935;28;29788;-59
2023/06/15 00:18:05;;;;;;;;;22.75;21.75;;;;;28.00;29.65;100891.94;5028583;28;29997;-60
2023/06/15 00:20:31;;;;;;;;;22.80;21.40;;;;;27.94;30.09;100890.41;5029393;28;29950;-62
2023/06/15 00:22:58;;;;;;;;;24.75;23.50;;;;;27.83;30.38;100895.53;5044054;28;29748;-59
2023/06/15 00:25:23;;;;;;;;;22.00;20.80;;;;;27.84;30.59;100896.34;5011423;28;29843;-61
2023/06/15 00:27:49;;;;;;;;;23.00;21.00;;;;;27.86;30.39;100894.84;5029250;28;29115;-61
2023/06/15 00:30:14;;;;;;;;;22.00;21.75;;;;;27.87;29.80;100895.69;5029018;28;29347;-59
2023/06/15 00:32:40;;;;;;;;;22.75;22.50;;;;;27.65;30.47;100883.34;5028910;28;29937;-62
2023/06/15 00:35:06;;;;;;;;;23.50;22.50;;;;;27.63;30.35;100894.09;5028896;28;29729;-61
2023/06/15 00:37:31;;;;;;;;;22.00;21.00;;;;;27.59;30.24;100904.38;5011263;28;29650;-59
2023/06/15 00:39:57;;;;;;;;;21.00;20.25;;;;;27.53;30.87;100908.47;5029102;28;29985;-60
2023/06/15 00:42:22;;;;;;;;;21.50;20.25;;;;;27.57;30.86;100917.94;5043594;28;29674;-64
2023/06/15 00:44:47;;;;;;;;;23.75;22.50;;;;;27.54;30.64;100916.56;5028848;28;29073;-61
2023/06/15 00:47:17;;;;;;;;;19.00;19.00;;;;;27.44;30.75;100916.88;5043747;28;29500;-60
2023/06/15 00:49:42;;;;;;;;;26.40;23.80;;;;;27.43;30.74;100915.22;5029340;28;29062;-58
2023/06/15 00:52:07;;;;;;;;;23.75;23.75;;;;;27.26;30.88;100913.94;5028685;28;30089;-60
2023/06/15 00:54:34;;;;;;;;;20.00;20.00;;;;;27.21;31.12;100914.06;5028468;28;29557;-61
2023/06/15 00:56:59;;;;;;;;;24.60;21.80;;;;;27.28;31.44;100913.63;5043787;28;29755;-59
2023/06/15 00:59:25;;;;;;;;;27.25;23.25;;;;;27.29;31.51;100904.88;5012763;28;29770;-57
2023/06/15 01:01:54;;;;;;;;;23.25;21.50;;;;;27.18;31.65;100904.31;4999546;28;30197;-61
2023/06/15 01:04:24;;;;;;;;;22.20;22.20;;;;;27.11;31.57;100894.63;5047973;28;29814;-58
2023/06/15 01:06:51;;;;;;;;;20.00;20.00;;;;;27.18;31.52;100903.47;5030542;28;29769;-58
2023/06/15 01:09:17;;;;;;;;;22.80;21.40;;;;;27.15;31.81;100906.94;5048371;28;29155;-60
2023/06/15 01:11:43;;;;;;;;;23.20;21.40;;;;;27.02;31.90;100901.06;5030117;28;30262;-59
2023/06/15 01:14:09;;;;;;;;;22.40;22.40;;;;;27.03;31.79;100902.72;5030058;28;29307;-59
2023/06/15 01:16:41;;;;;;;;;14.60;12.60;;;;;27.12;31.73;100904.75;5038399;28;29522;-60
2023/06/15 01:19:13;;;;;;;;;14.00;13.40;;;;;27.02;31.76;100905.84;5027986;28;29367;-59
2023/06/15 01:21:39;;;;;;;;;19.80;18.60;;;;;26.99;31.65;100906.50;5011047;28;30177;-60
2023/06/15 01:24:23;;;;;;;;;19.50;18.00;;;;;26.83;31.73;100917.28;5026915;28;29226;-59
2023/06/15 01:26:49;;;;;;;;;20.00;18.20;;;;;26.79;32.02;100909.44;5031845;28;29359;-60
2023/06/15 01:29:16;;;;;;;;;20.00;19.20;;;;;26.81;31.84;100903.50;4997635;28;29958;-58
2023/06/15 01:31:42;;;;;;;;;21.40;18.80;;;;;26.86;31.81;100913.81;5029935;28;30891;-59
2023/06/15 01:34:08;;;;;;;;;18.60;18.40;;;;;26.77;31.82;100908.09;5013297;28;29584;-59
2023/06/15 01:36:33;;;;;;;;;19.50;15.75;;;;;26.74;31.59;100915.19;5031698;28;29597;-60
2023/06/15 01:38:59;;;;;;;;;15.25;15.00;;;;;26.69;31.59;100906.06;5031601;28;29669;-61
2023/06/15 01:41:25;;;;;;;;;20.25;18.25;;;;;26.65;31.75;100911.47;5046386;28;29340;-59
2023/06/15 01:43:50;;;;;;;;;21.80;17.40;;;;;26.66;31.99;100911.19;4996827;28;29158;-58
2023/06/15 01:46:16;;;;;;;;;22.75;22.00;;;;;26.69;31.83;100915.34;5047087;28;29543;-60
2023/06/15 01:48:41;;;;;;;;;24.00;22.50;;;;;26.69;31.79;100914.50;5013571;28;29588;-60
2023/06/15 01:51:07;;;;;;;;;19.75;19.00;;;;;26.68;31.48;100907.22;5031637;28;29962;-60
2023/06/15 01:53:32;;;;;;;;;25.00;23.25;;;;;26.67;31.66;100909.19;5046334;28;29929;-58
2023/06/15 01:55:59;;;;;;;;;22.50;20.50;;;;;26.53;31.64;100912.88;5031068;28;29852;-60
2023/06/15 01:58:24;;;;;;;;;21.60;19.20;;;;;26.45;31.74;100912.78;5031274;28;29751;-59
2023/06/15 02:00:50;;;;;;;;;19.00;19.00;;;;;26.44;31.84;100906.34;5031687;28;30154;-60
2023/06/15 02:03:15;;;;;;;;;24.00;20.00;;;;;26.49;31.91;100911.84;5023489;28;29658;-60
2023/06/15 02:05:41;;;;;;;;;25.50;24.00;;;;;26.50;31.80;100901.41;5011471;28;29650;-61
2023/06/15 02:08:10;;;;;;;;;28.00;24.25;;;;;26.53;31.73;100904.41;5031109;28;29305;-58
2023/06/15 02:10:36;;;;;;;;;21.00;18.00;;;;;26.50;31.46;100902.25;5031125;28;29599;-59
2023/06/15 02:13:01;;;;;;;;;20.00;18.25;;;;;26.46;31.81;100908.84;5031137;28;29485;-61
2023/06/15 02:15:27;;;;;;;;;20.25;17.50;;;;;26.45;31.72;100905.19;5031441;28;29274;-59
2023/06/15 02:18:00;;;;;;;;;15.40;15.40;;;;;26.38;31.59;100908.44;5030980;28;29505;-59
2023/06/15 02:20:27;;;;;;;;;19.60;18.00;;;;;26.41;31.72;100906.13;5030823;28;29626;-61
2023/06/15 02:22:53;;;;;;;;;21.40;21.40;;;;;26.33;31.96;100913.34;5030821;28;29904;-62
2023/06/15 02:25:19;;;;;;;;;28.00;25.40;;;;;26.34;32.04;100917.81;5046274;28;29433;-60
2023/06/15 02:27:45;;;;;;;;;31.00;30.00;;;;;26.30;32.20;100913.97;5031181;28;29841;-61
2023/06/15 02:30:11;;;;;;;;;25.25;21.75;;;;;26.20;32.31;100901.75;5030368;28;29798;-59
2023/06/15 02:32:37;;;;;;;;;28.40;27.00;;;;;26.25;32.29;100904.50;5013068;28;29896;-61
2023/06/15 02:35:10;;;;;;;;;26.50;24.25;;;;;26.23;32.28;100903.13;5030335;28;29968;-62
2023/06/15 02:37:35;;;;;;;;;0.00;0.00;;;;;26.23;32.21;100908.78;5031477;28;29746;-62
2023/06/15 02:40:03;;;;;;;;;22.75;21.25;;;;;26.15;32.36;100920.72;5030616;28;29148;-60
2023/06/15 02:42:29;;;;;;;;;22.60;21.40;;;;;26.22;32.39;100916.38;5029841;28;29665;-60
2023/06/15 02:44:55;;;;;;;;;25.75;22.25;;;;;26.24;32.31;100913.25;5027224;28;29227;-61
2023/06/15 02:47:20;;;;;;;;;25.75;24.00;;;;;26.29;32.34;100907.50;5032337;28;30303;-61
2023/06/15 02:49:46;;;;;;;;;18.75;18.75;;;;;26.25;31.79;100901.69;5050231;28;30523;-61
2023/06/15 02:52:11;;;;;;;;;22.50;21.75;;;;;26.38;31.90;100916.88;5050309;28;29652;-59
2023/06/15 02:54:37;;;;;;;;;24.00;21.00;;;;;26.40;31.67;100910.91;5050525;28;29816;-62
2023/06/15 02:57:08;;;;;;;;;25.75;24.75;;;;;26.43;31.90;100923.53;5050532;28;29251;-61
2023/06/15 02:59:34;;;;;;;;;29.60;23.60;;;;;26.16;32.03;100909.19;5032282;28;31108;-60
2023/06/15 03:02:00;;;;;;;;;20.00;19.40;;;;;26.20;32.13;100915.00;5050672;28;28998;-60
2023/06/15 03:04:27;;;;;;;;;19.75;18.50;;;;;26.20;31.97;100909.38;5031886;28;29397;-63
2023/06/15 03:06:54;;;;;;;;;19.00;18.40;;;;;26.24;31.75;100916.91;5050734;28;29820;-59
2023/06/15 03:09:20;;;;;;;;;21.40;19.40;;;;;26.09;31.51;100897.53;5050403;28;29613;-59
2023/06/15 03:11:46;;;;;;;;;17.50;17.00;;;;;26.28;31.76;100921.88;5050366;28;29341;-62
2023/06/15 03:14:11;;;;;;;;;24.50;20.50;;;;;26.21;31.78;100919.47;5050319;28;29750;-59
2023/06/15 03:16:46;;;;;;;;;25.00;22.50;;;;;26.06;31.96;100910.22;5010886;28;29580;-63
2023/06/15 03:19:18;;;;;;;;;27.00;23.40;;;;;26.03;32.18;100916.47;5029892;28;30474;-59
2023/06/15 03:21:46;;;;;;;;;24.20;23.60;;;;;26.01;32.24;100903.88;5030011;28;29705;-60
2023/06/15 03:24:13;;;;;;;;;24.40;24.40;;;;;26.09;32.25;100912.41;5045175;28;29744;-61
2023/06/15 03:26:40;;;;;;;;;23.80;21.80;;;;;25.98;32.29;100923.03;5030284;28;29383;-61
2023/06/15 03:29:06;;;;;;;;;29.20;24.20;;;;;25.96;32.08;100916.91;5029691;28;29917;-61
2023/06/15 03:31:33;;;;;;;;;23.25;20.25;;;;;26.01;32.28;100915.94;5045252;28;28865;-61
2023/06/15 03:34:01;;;;;;;;;26.00;25.80;;;;;25.96;32.44;100927.28;5029923;28;29576;-61
2023/06/15 03:36:30;;;;;;;;;24.60;19.60;;;;;25.80;32.68;100907.09;5012004;28;29682;-61
2023/06/15 03:38:58;;;;;;;;;22.20;22.20;;;;;25.73;32.50;100920.72;5012353;28;29342;-59
2023/06/15 03:41:27;;;;;;;;;20.60;20.60;;;;;25.68;32.64;100921.66;5029291;28;29699;-55
2023/06/15 03:43:53;;;;;;;;;18.00;16.80;;;;;25.68;32.44;100924.47;5029664;28;29513;-60
2023/06/15 03:46:18;;;;;;;;;17.75;15.75;;;;;25.65;32.45;100923.13;5029497;28;29088;-58
2023/06/15 03:48:44;;;;;;;;;20.50;19.50;;;;;25.70;32.60;100925.84;5028324;28;30401;-61
2023/06/15 03:51:09;;;;;;;;;21.50;20.00;;;;;25.81;32.38;100922.81;5029548;28;29228;-59
2023/06/15 03:53:36;;;;;;;;;17.25;15.75;;;;;25.90;32.11;100925.72;5029344;28;29553;-58
2023/06/15 03:56:02;;;;;;;;;19.80;18.60;;;;;25.98;32.23;100928.66;5011546;28;29210;-60
2023/06/15 03:58:27;;;;;;;;;15.60;13.00;;;;;26.02;32.44;100931.66;5028926;28;30138;-60
2023/06/15 04:00:53;;;;;;;;;19.25;17.75;;;;;26.03;32.34;100924.91;5029216;28;30090;-59
2023/06/15 04:03:19;;;;;;;;;22.75;22.25;;;;;26.05;32.23;100925.44;5029409;28;30186;-59
2023/06/15 04:05:44;;;;;;;;;24.50;20.75;;;;;26.06;32.16;100932.72;5029337;28;29780;-60
2023/06/15 04:08:10;;;;;;;;;20.00;18.75;;;;;26.06;32.16;100921.47;5029359;28;29589;-59
2023/06/15 04:10:36;;;;;;;;;21.60;18.60;;;;;25.94;32.30;100916.34;5029086;28;29592;-60
2023/06/15 04:13:01;;;;;;;;;19.25;15.50;;;;;26.02;32.44;100933.63;5029107;28;29559;-60
2023/06/15 04:15:27;;;;;;;;;19.00;18.00;;;;;26.04;32.31;100932.19;5010974;28;29899;-59
2023/06/15 04:17:52;;;;;;;;;19.25;18.75;;;;;26.07;32.33;100930.72;5028512;28;30346;-60
2023/06/15 04:20:19;;;;;;;;;16.75;14.00;;;;;26.09;32.22;100937.72;5028812;28;29620;-61
2023/06/15 04:22:45;;;;;;;;;15.80;14.00;;;;;26.07;32.52;100934.38;5028682;28;29419;-57
2023/06/15 04:25:10;;;;;;;;;17.50;15.50;;;;;26.10;32.47;100942.19;5028778;28;29763;-60
2023/06/15 04:27:36;;;;;;;;;17.25;15.00;;;;;25.97;32.79;100937.41;5028948;28;30210;-60
2023/06/15 04:30:03;;;;;;;;;16.20;13.80;;;;;25.88;32.68;100942.09;5028266;28;29527;-60
2023/06/15 04:32:30;;;;;;;;;19.20;17.60;;;;;25.90;32.85;100948.22;5026837;28;29749;-59
2023/06/15 04:34:57;;;;;;;;;13.00;12.00;;;;;25.90;32.83;100945.41;5011602;28;29954;-59
2023/06/15 04:37:23;;;;;;;;;14.40;14.20;;;;;25.68;33.02;100930.91;5017640;28;30188;-61
2023/06/15 04:39:49;;;;;;;;;14.50;14.50;;;;;25.78;32.90;100951.56;5028296;28;29719;-61
2023/06/15 04:42:17;;;;;;;;;14.60;14.60;;;;;25.74;32.91;100942.06;5028569;28;29165;-60
2023/06/15 04:44:43;;;;;;;;;11.20;11.20;;;;;25.79;32.72;100951.25;5028963;28;29681;-59
2023/06/15 04:47:09;;;;;;;;;11.50;11.50;;;;;25.87;32.80;100951.66;5043565;28;29614;-60
2023/06/15 04:49:34;;;;;;;;;13.75;13.75;;;;;25.92;32.42;100951.56;5028308;28;29788;-60
2023/06/15 04:52:00;;;;;;;;;16.25;15.75;;;;;25.99;32.57;100963.25;5016889;28;29382;-61
2023/06/15 04:54:25;;;;;;;;;16.25;15.00;;;;;25.98;32.99;100967.16;5048493;28;29534;-62
2023/06/15 04:56:51;;;;;;;;;19.00;16.00;;;;;25.81;33.03;100951.75;5030346;28;29357;-59
2023/06/15 04:59:16;;;;;;;;;16.50;15.00;;;;;25.87;33.33;100951.66;5049804;28;29755;-57
2023/06/15 05:01:42;;;;;;;;;16.25;15.00;;;;;25.93;33.34;100956.06;5052572;28;29180;-62
2023/06/15 05:04:08;;;;;;;;;15.25;14.00;;;;;25.92;33.72;100951.56;5051732;28;29445;-60
2023/06/15 05:06:33;;;;;;;;;16.40;14.20;;;;;25.79;33.97;100951.25;5034150;28;29986;-59
2023/06/15 05:08:59;;;;;;;;;22.25;17.00;;;;;25.87;33.86;100954.47;5051858;28;29578;-59
2023/06/15 05:11:24;;;;;;;;;19.25;17.00;;;;;25.96;33.84;100977.91;5052080;28;29644;-61
2023/06/15 05:13:51;;;;;;;;;16.00;16.00;;;;;26.02;33.90;100971.03;5051931;28;29474;-58
2023/06/15 05:16:17;;;;;;;;;19.00;17.80;;;;;26.04;33.97;100974.38;5001402;28;29853;-55
2023/06/15 05:18:42;;;;;;;;;19.00;16.75;;;;;26.05;33.93;100966.78;5045265;28;29584;-59
2023/06/15 05:21:09;;;;;;;;;19.25;18.00;;;;;26.08;33.74;100971.75;5031625;28;29643;-57
2023/06/15 05:23:35;;;;;;;;;15.00;15.00;;;;;26.05;33.55;100973.25;5031724;28;29781;-59
2023/06/15 05:26:00;;;;;;;;;14.40;14.20;;;;;25.96;33.58;100958.22;5031726;28;30439;-59
2023/06/15 05:28:26;;;;;;;;;15.50;14.00;;;;;26.03;33.75;100974.69;5031612;28;29565;-59
2023/06/15 05:30:51;;;;;;;;;17.00;15.25;;;;;26.03;33.71;100978.31;5031602;28;29075;-58
2023/06/15 05:33:17;;;;;;;;;17.00;17.00;;;;;25.97;33.35;100966.34;5031647;28;29872;-59
2023/06/15 05:35:43;;;;;;;;;13.60;13.20;;;;;26.02;33.42;100976.66;5031334;28;29692;-59
2023/06/15 05:38:08;;;;;;;;;15.00;15.00;;;;;26.01;33.57;100968.53;5032346;28;29675;-58
2023/06/15 05:40:34;;;;;;;;;14.25;13.50;;;;;26.04;33.64;100977.16;5033211;28;29923;-59
2023/06/15 05:42:59;;;;;;;;;15.00;15.00;;;;;26.06;33.51;100990.94;5033672;28;29848;-59
2023/06/15 05:45:25;;;;;;;;;13.25;13.25;;;;;25.94;33.66;100971.78;5051020;28;29871;-59
2023/06/15 05:47:50;;;;;;;;;14.00;13.50;;;;;26.01;33.29;100985.41;5051097;28;29107;-60
2023/06/15 05:50:16;;;;;;;;;16.50;15.50;;;;;26.03;33.34;100989.56;5051242;28;29639;-60
2023/06/15 05:52:41;;;;;;;;;14.25;13.00;;;;;25.97;33.61;100994.47;5051573;28;29483;-56
2023/06/15 05:55:07;;;;;;;;;14.50;13.50;;;;;25.94;33.57;100994.25;5033270;28;29634;-59
2023/06/15 05:57:33;;;;;;;;;16.25;15.75;;;;;25.88;33.73;100999.13;5050885;28;30385;-59
2023/06/15 05:59:59;;;;;;;;;13.00;13.00;;;;;25.95;33.84;101002.41;5051599;28;29807;-59
2023/06/15 06:02:24;;;;;;;;;15.50;14.75;;;;;25.97;33.91;100997.28;5051384;28;29901;-60
2023/06/15 06:04:49;;;;;;;;;15.75;15.25;;;;;25.88;33.87;100982.25;5051008;28;29887;-60
2023/06/15 06:07:15;;;;;;;;;14.50;14.50;;;;;25.95;34.11;100995.91;5051737;28;29637;-58
2023/06/15 06:09:41;;;;;;;;;18.75;16.00;;;;;25.98;34.05;100992.47;5034412;28;29279;-60
2023/06/15 06:12:07;;;;;;;;;14.50;14.25;;;;;25.93;33.84;100993.41;5036958;28;29547;-61
2023/06/15 06:14:32;;;;;;;;;17.00;15.00;;;;;25.80;34.39;100992.25;5029594;28;29662;-60
2023/06/15 06:16:58;;;;;;;;;17.25;16.25;;;;;25.79;34.00;100989.75;5028696;28;29436;-58
2023/06/15 06:19:23;;;;;;;;;17.50;15.00;;;;;25.90;33.87;100996.00;5029751;28;29623;-58
2023/06/15 06:21:49;;;;;;;;;17.00;16.50;;;;;25.97;34.21;101000.09;5029490;28;29688;-60
2023/06/15 06:24:15;;;;;;;;;15.00;13.25;;;;;25.94;34.34;100991.44;5029323;28;30300;-59
2023/06/15 06:26:41;;;;;;;;;15.40;13.40;;;;;25.97;33.96;100997.28;5029192;28;29189;-60
2023/06/15 06:29:06;;;;;;;;;15.00;14.00;;;;;26.04;34.02;101005.28;5027555;28;30110;-59
2023/06/15 06:31:32;;;;;;;;;15.00;15.00;;;;;25.99;34.05;101011.84;5045466;28;29326;-60
2023/06/15 06:33:58;;;;;;;;;15.50;14.50;;;;;25.97;33.67;100988.84;5029264;28;30570;-58
2023/06/15 06:36:25;;;;;;;;;13.50;13.50;;;;;26.09;33.48;101010.00;5029120;28;29594;-59
2023/06/15 06:38:50;;;;;;;;;14.80;14.00;;;;;26.10;33.81;101018.09;5028913;28;28991;-60
2023/06/15 06:41:15;;;;;;;;;14.50;13.50;;;;;26.04;33.79;101012.91;5027938;28;29499;-59
2023/06/15 06:43:41;;;;;;;;;16.50;15.25;;;;;26.05;33.82;101015.41;5028848;28;29788;-61
2023/06/15 06:46:07;;;;;;;;;14.50;14.50;;;;;26.09;33.32;101015.63;5029335;28;29765;-60
2023/06/15 06:48:32;;;;;;;;;17.00;13.75;;;;;26.11;33.38;101016.16;5029559;28;29876;-60
2023/06/15 06:50:57;;;;;;;;;13.75;12.75;;;;;26.01;33.42;101014.38;5028689;28;29221;-59
2023/06/15 06:53:23;;;;;;;;;14.75;13.00;;;;;26.06;33.74;101022.72;5027910;28;30010;-61
2023/06/15 06:55:48;;;;;;;;;13.75;13.75;;;;;25.98;33.81;101029.03;5027917;28;29574;-60
2023/06/15 06:58:14;;;;;;;;;15.00;13.50;;;;;25.96;34.04;101025.69;5034430;28;29840;-57
2023/06/15 07:00:39;;;;;;;;;15.00;14.50;;;;;26.03;34.33;101025.31;5049323;28;30261;-60
2023/06/15 07:03:05;;;;;;;;;13.00;13.00;;;;;25.98;34.05;100996.13;5048382;28;29291;-58
2023/06/15 07:05:31;;;;;;;;;13.75;13.75;;;;;26.14;33.10;101014.69;5045386;28;29464;-59
2023/06/15 07:07:56;;;;;;;;;11.75;10.75;;;;;26.20;33.03;101027.50;5028806;28;28997;-58
2023/06/15 07:10:22;;;;;;;;;16.00;13.00;;;;;26.23;33.35;101032.53;5029284;28;29364;-57
2023/06/15 07:12:47;;;;;;;;;14.75;13.75;;;;;26.26;33.38;101040.34;5029055;28;29990;-56
2023/06/15 07:15:13;;;;;;;;;12.00;12.00;;;;;26.29;33.62;101036.09;5028995;28;29771;-58
2023/06/15 07:17:39;;;;;;;;;16.00;14.75;;;;;26.28;33.11;101040.88;5028024;28;29777;-59
2023/06/15 07:20:05;;;;;;;;;14.75;13.25;;;;;26.25;33.48;101033.06;5000827;28;33831;-60
2023/06/15 07:22:30;;;;;;;;;12.80;12.80;;;;;26.35;33.19;101041.28;5007536;28;29806;-62
2023/06/15 07:24:56;;;;;;;;;16.00;14.25;;;;;26.34;32.62;101047.22;5028526;28;29905;-61
2023/06/15 07:27:21;;;;;;;;;15.75;13.75;;;;;26.22;33.22;101042.13;5011088;28;29204;-59
2023/06/15 07:29:48;;;;;;;;;16.50;15.50;;;;;26.19;33.42;101039.91;5029152;28;29669;-61
2023/06/15 07:32:13;;;;;;;;;12.40;11.20;;;;;26.18;33.46;101024.16;5048109;28;29848;-60
2023/06/15 07:34:39;;;;;;;;;10.25;10.00;;;;;26.32;33.14;101049.50;5048033;28;29833;-57
2023/06/15 07:37:05;;;;;;;;;14.25;13.25;;;;;26.36;33.04;101045.75;5035441;28;29486;-61
2023/06/15 07:39:31;;;;;;;;;13.60;11.60;;;;;26.32;32.95;101038.25;5028399;28;29839;-60
2023/06/15 07:41:56;;;;;;;;;12.50;11.25;;;;;26.37;32.69;101044.59;5026780;28;30427;-61
2023/06/15 07:44:22;;;;;;;;;12.75;12.00;;;;;26.44;32.59;101049.84;5028136;28;29101;-62
2023/06/15 07:46:48;;;;;;;;;15.00;13.40;;;;;26.53;32.40;101050.75;5028153;28;29592;-61
2023/06/15 07:49:13;;;;;;;;;9.75;9.75;;;;;26.59;32.38;101053.47;5028210;28;29815;-61
2023/06/15 07:51:39;;;;;;;;;15.00;14.00;;;;;26.66;32.23;101054.72;5028198;28;30331;-61
2023/06/15 07:54:05;;;;;;;;;12.40;12.40;;;;;26.57;32.06;101036.88;5026475;28;30137;-60
2023/06/15 07:56:30;;;;;;;;;13.50;13.50;;;;;26.72;32.13;101057.44;5028151;28;29295;-59
2023/06/15 07:58:56;;;;;;;;;14.50;11.25;;;;;26.74;32.00;101055.94;5028177;28;30035;-61
2023/06/15 08:01:21;;;;;;;;;9.00;9.00;;;;;26.75;31.57;101056.78;5009518;28;30014;-60
2023/06/15 08:03:47;;;;;;;;;11.25;9.50;;;;;26.78;31.74;101053.31;5026906;28;30197;-61
2023/06/15 08:06:13;;;;;;;;;12.75;10.75;;;;;26.79;31.97;101038.94;5026349;28;29588;-61
2023/06/15 08:08:38;;;;;;;;;9.25;8.50;;;;;26.80;31.13;101060.31;5027795;28;29842;-59
2023/06/15 08:11:05;;;;;;;;;14.75;12.25;;;;;26.80;31.34;101060.31;5027223;28;29842;-60
2023/06/15 08:13:31;;;;;;;;;13.00;12.00;;;;;26.90;31.53;101067.72;5027700;28;29508;-59
2023/06/15 08:15:57;;;;;;;;;11.60;11.00;;;;;26.93;31.36;101069.94;5025899;28;29595;-59
2023/06/15 08:18:23;;;;;;;;;8.20;8.20;;;;;26.84;31.44;101060.50;4981417;28;30240;-62
2023/06/15 08:20:48;;;;;;;;;10.25;10.25;;;;;26.91;30.78;101062.94;5038902;28;29740;-60
2023/06/15 08:23:13;;;;;;;;;9.75;9.00;;;;;26.93;31.24;101064.28;5031766;28;29902;-60
2023/06/15 08:25:39;;;;;;;;;11.00;9.00;;;;;26.92;31.03;101065.44;5022548;28;30192;-58
2023/06/15 08:28:05;;;;;;;;;11.50;11.50;;;;;26.88;31.04;101055.94;5039931;28;29412;-58
2023/06/15 08:30:30;;;;;;;;;10.75;10.75;;;;;26.91;30.91;101069.41;5021671;28;30039;-59
2023/06/15 08:32:56;;;;;;;;;12.50;12.50;;;;;26.95;31.17;101063.16;5044080;28;29878;-60
2023/06/15 08:35:22;;;;;;;;;10.75;10.75;;;;;26.93;31.43;101049.38;5047345;28;29950;-61
2023/06/15 08:37:48;;;;;;;;;10.25;10.25;;;;;26.99;30.66;101065.00;5047822;28;29701;-59
2023/06/15 08:40:13;;;;;;;;;13.75;13.75;;;;;26.97;30.92;101069.28;5029096;28;29882;-58
2023/06/15 08:42:39;;;;;;;;;10.75;10.75;;;;;26.99;31.42;101065.00;5026093;28;29651;-56
2023/06/15 08:45:07;;;;;;;;;12.60;10.60;;;;;27.08;30.68;101067.91;5024212;28;29584;-59
2023/06/15 08:47:33;;;;;;;;;10.40;9.60;;;;;27.08;30.69;101072.69;5027492;28;29431;-60
2023/06/15 08:50:03;;;;;;;;;10.80;10.60;;;;;27.11;30.14;101070.06;5026913;28;30027;-57
2023/06/15 08:52:31;;;;;;;;;11.00;9.40;;;;;27.18;30.64;101067.69;5042026;28;30977;-58
2023/06/15 08:54:56;;;;;;;;;12.80;10.00;;;;;27.29;30.35;101067.41;5028631;28;29626;-59
2023/06/15 08:57:22;;;;;;;;;8.25;8.25;;;;;27.33;30.14;101063.66;5026856;28;29922;-59
2023/06/15 08:59:47;;;;;;;;;10.50;10.50;;;;;27.28;30.72;101065.75;5027862;28;29791;-59
2023/06/15 09:02:18;;;;;;;;;12.25;11.25;;;;;27.32;30.52;101070.44;5027252;28;29467;-58
2023/06/15 09:04:43;;;;;;;;;10.40;9.80;;;;;27.31;30.56;101053.84;5011110;28;29673;-57
2023/06/15 09:07:10;;;;;;;;;10.50;9.00;;;;;27.44;30.32;101060.59;5028622;28;29698;-58
2023/06/15 09:09:35;;;;;;;;;13.20;9.60;;;;;27.51;29.91;101072.25;5026980;28;30005;-58
2023/06/15 09:12:01;;;;;;;;;9.00;8.00;;;;;27.54;29.99;101063.13;5028227;28;29942;-59
2023/06/15 09:14:26;;;;;;;;;16.25;12.25;;;;;27.58;30.14;101069.03;5028366;28;29899;-59
2023/06/15 09:16:52;;;;;;;;;9.75;9.75;;;;;27.65;30.05;101072.22;5028437;28;28917;-58
2023/06/15 09:19:19;;;;;;;;;9.75;9.75;;;;;27.52;29.81;101059.81;4987398;28;29980;-60
2023/06/15 09:21:50;;;;;;;;;12.20;10.00;;;;;27.53;30.21;101066.28;4983928;28;30460;-61
2023/06/15 09:24:17;;;;;;;;;11.80;10.00;;;;;27.63;30.39;101068.88;4996389;28;29655;-57
2023/06/15 09:26:43;;;;;;;;;10.20;10.00;;;;;27.70;29.24;101071.25;5022624;28;29817;-61
2023/06/15 09:29:11;;;;;;;;;10.00;9.00;;;;;27.71;29.94;101068.13;5004431;28;30065;-57
2023/06/15 09:31:37;;;;;;;;;11.40;11.40;;;;;27.76;29.41;101066.31;5005787;28;29725;-58
2023/06/15 09:34:03;;;;;;;;;12.50;10.75;;;;;27.84;29.54;101060.72;5003617;28;29741;-52
2023/06/15 09:36:53;;;;;;;;;10.40;8.80;;;;;27.90;29.20;101066.22;5006760;28;29777;-58
2023/06/15 09:39:22;;;;;;;;;10.00;10.00;;;;;27.89;28.74;101059.75;5006106;28;29825;-62
2023/06/15 09:41:56;;;;;;;;;9.60;8.00;;;;;28.00;29.31;101060.31;5004418;28;29544;-58
2023/06/15 09:44:22;;;;;;;;;9.40;9.40;;;;;28.07;28.74;101060.66;5006171;28;29494;-58
2023/06/15 09:46:51;;;;;;;;;8.25;7.75;;;;;28.08;27.75;101053.06;5006569;28;29932;-59
2023/06/15 09:49:25;;;;;;;;;9.80;9.80;;;;;28.11;27.79;101055.22;5007486;28;32610;-58
2023/06/15 09:51:51;;;;;;;;;10.60;9.00;;;;;28.17;27.98;101058.75;5027221;28;30031;-56
2023/06/15 09:54:17;;;;;;;;;10.75;10.75;;;;;28.14;27.87;101057.41;5026077;28;29678;-57
2023/06/15 09:56:43;;;;;;;;;11.60;11.60;;;;;28.18;27.72;101057.56;5011733;28;29801;-60
2023/06/15 09:59:09;;;;;;;;;10.50;9.25;;;;;28.12;27.31;101043.59;5027441;28;29624;-63
2023/06/15 10:01:35;;;;;;;;;12.25;12.25;;;;;28.35;27.25;101052.03;5018639;28;29672;-61
2023/06/15 10:04:02;;;;;;;;;10.80;10.60;;;;;28.55;27.12;101067.53;5028853;28;29096;-64
2023/06/15 10:06:27;;;;;;;;;12.20;10.80;;;;;28.63;27.76;101056.59;5028070;28;29047;-58
2023/06/15 10:08:56;;;;;;;;;10.25;10.25;;;;;28.71;26.94;101052.97;5011315;28;30491;-60
2023/06/15 10:11:22;;;;;;;;;10.40;10.40;;;;;28.88;27.29;101051.38;5019255;28;29765;-59
2023/06/15 10:14:25;;;;;;;;;11.00;11.00;;;;;28.98;27.45;101067.16;4992173;28;29400;-58
2023/06/15 10:17:02;;;;;;;;;13.00;13.00;;;;;29.06;26.19;101058.69;5028668;28;29447;-59
2023/06/15 10:19:27;;;;;;;;;11.00;9.60;;;;;29.05;26.14;101062.69;5002918;28;29625;-57
2023/06/15 10:21:53;;;;;;;;;12.75;11.50;;;;;29.11;26.57;101069.00;4991724;28;29206;-61
2023/06/15 10:24:20;;;;;;;;;8.25;8.25;;;;;29.14;25.43;101056.22;4977498;28;29595;-62
2023/06/15 10:26:46;;;;;;;;;12.00;10.00;;;;;29.22;26.30;101050.56;5026007;28;30160;-57
2023/06/15 10:29:36;;;;;;;;;13.25;12.50;;;;;29.41;25.92;101062.69;5009004;28;29900;-58
2023/06/15 10:32:13;;;;;;;;;11.60;10.40;;;;;29.54;25.44;101055.22;5008771;28;30137;-58
2023/06/15 10:34:45;;;;;;;;;13.60;12.60;;;;;29.56;25.05;101050.06;5007222;28;29690;-56
2023/06/15 10:37:24;;;;;;;;;10.40;10.00;;;;;29.64;25.23;101054.88;4990940;28;29791;-58
2023/06/15 10:39:50;;;;;;;;;14.00;12.80;;;;;29.68;25.29;101067.19;4992925;28;29671;-58
2023/06/15 10:42:15;;;;;;;;;14.50;13.25;;;;;29.65;25.23;101048.06;4996155;28;30178;-55
2023/06/15 10:44:41;;;;;;;;;13.25;13.25;;;;;29.70;24.98;101064.84;5043871;28;29755;-53
2023/06/15 10:47:07;;;;;;;;;13.00;13.00;;;;;29.71;25.39;101049.53;5028845;28;29584;-53
2023/06/15 10:49:33;;;;;;;;;14.20;12.40;;;;;29.79;25.31;101053.53;5017525;28;29678;-57
2023/06/15 10:51:58;;;;;;;;;16.25;15.00;;;;;29.89;24.97;101055.16;5009029;28;29640;-58
2023/06/15 10:54:26;;;;;;;;;14.25;13.00;;;;;29.98;25.38;101047.47;5008223;28;29052;-54
2023/06/15 10:56:53;;;;;;;;;12.20;12.20;;;;;30.01;25.31;101066.59;5007734;28;30058;-53
2023/06/15 10:59:39;;;;;;;;;10.60;10.60;;;;;30.01;25.33;101051.63;5006853;28;30599;-60
2023/06/15 11:02:31;;;;;;;;;10.20;10.20;;;;;30.07;25.29;101044.59;5006624;28;29335;-61
2023/06/15 11:05:09;;;;;;;;;10.40;10.40;;;;;30.13;25.32;101040.47;5008930;28;29203;-57
2023/06/15 11:07:39;;;;;;;;;13.60;11.40;;;;;30.23;25.30;101047.75;5008627;28;29504;-57